Time;durP1;ratioP1;P1;durP2;ratioP2;P2;SDS_P1;SDS_P2;PMS_P1;PMS_P2;Temp;Humidity;BMP_temperature;BMP_pressure;BME280_temperature;BME280_humidity;BME280_pressure;Samples;Min_cycle;Max_cycle;Signal;HPM_P1;HPM_P2
2021/10/23 00:00:13;;;;;;;0.10;0.10;;;;;;;;;;10475062;28;20080;-74
2021/10/23 00:05:16;;;;;;;0.20;0.17;;;;;;;;;;10480511;28;20443;-73
2021/10/23 00:10:20;;;;;;;0.10;0.10;;;;;;;;;;10481078;28;20044;-74
2021/10/23 00:15:24;;;;;;;0.10;0.10;;;;;;;;;;10480248;28;20427;-73
2021/10/23 00:20:26;;;;;;;0.10;0.10;;;;;;;;;;10480935;28;20052;-73
2021/10/23 00:25:30;;;;;;;0.10;0.10;;;;;;;;;;10481507;28;20555;-73
2021/10/23 00:30:33;;;;;;;0.10;0.10;;;;;;;;;;10477682;28;20067;-73
2021/10/23 00:35:36;;;;;;;0.10;0.10;;;;;;;;;;10476466;28;20041;-73
2021/10/23 00:40:40;;;;;;;0.10;0.10;;;;;;;;;;10480282;28;20068;-73
2021/10/23 00:45:43;;;;;;;0.15;0.15;;;;;;;;;;10482384;28;20048;-73
2021/10/23 00:50:46;;;;;;;0.10;0.10;;;;;;;;;;10488832;28;20102;-73
2021/10/23 00:55:50;;;;;;;0.20;0.20;;;;;;;;;;10564971;27;20036;-73
2021/10/23 01:00:54;;;;;;;0.20;0.20;;;;;;;;;;10562212;28;20709;-73
2021/10/23 01:05:57;;;;;;;0.20;0.20;;;;;;;;;;10562257;27;20044;-73
2021/10/23 01:11:01;;;;;;;0.20;0.20;;;;;;;;;;10560958;28;20049;-73
2021/10/23 01:16:04;;;;;;;0.10;0.10;;;;;;;;;;10560573;27;20044;-74
2021/10/23 01:21:08;;;;;;;0.10;0.10;;;;;;;;;;10557843;28;20051;-74
2021/10/23 01:26:11;;;;;;;0.20;0.20;;;;;;;;;;10562196;28;20034;-75
2021/10/23 01:31:14;;;;;;;0.10;0.10;;;;;;;;;;10562165;28;20059;-75
2021/10/23 01:36:18;;;;;;;0.10;0.10;;;;;;;;;;10560867;28;20054;-75
2021/10/23 01:41:21;;;;;;;0.10;0.10;;;;;;;;;;10565372;27;20506;-76
2021/10/23 01:46:24;;;;;;;0.15;0.15;;;;;;;;;;10562936;28;20173;-76
2021/10/23 01:51:28;;;;;;;0.25;0.25;;;;;;;;;;10562264;27;20489;-76
2021/10/23 01:56:32;;;;;;;0.10;0.10;;;;;;;;;;10563285;28;20135;-76
2021/10/23 02:01:34;;;;;;;0.20;0.20;;;;;;;;;;10562248;27;20061;-75
2021/10/23 02:06:39;;;;;;;0.20;0.20;;;;;;;;;;10563650;28;20051;-76
2021/10/23 02:11:42;;;;;;;0.20;0.20;;;;;;;;;;10567936;27;20055;-76
2021/10/23 02:16:44;;;;;;;0.10;0.10;;;;;;;;;;10563051;28;20043;-76
2021/10/23 02:21:49;;;;;;;0.10;0.10;;;;;;;;;;10513394;27;20048;-76
2021/10/23 02:26:51;;;;;;;0.10;0.10;;;;;;;;;;10479860;28;20421;-77
2021/10/23 02:31:54;;;;;;;0.15;0.15;;;;;;;;;;10515747;28;20147;-76
2021/10/23 02:36:59;;;;;;;0.10;0.10;;;;;;;;;;10477644;28;20048;-77
2021/10/23 02:42:03;;;;;;;0.20;0.20;;;;;;;;;;10484232;28;20036;-76
2021/10/23 02:47:06;;;;;;;0.13;0.13;;;;;;;;;;10476564;28;20055;-73
2021/10/23 02:52:10;;;;;;;0.20;0.20;;;;;;;;;;10472476;28;20422;-73
2021/10/23 02:57:13;;;;;;;0.20;0.20;;;;;;;;;;10466833;28;20421;-73
2021/10/23 03:02:16;;;;;;;0.40;0.20;;;;;;;;;;10471552;28;20049;-73
2021/10/23 03:07:21;;;;;;;0.10;0.10;;;;;;;;;;10471266;28;20049;-74
2021/10/23 03:12:23;;;;;;;0.10;0.10;;;;;;;;;;10473278;28;20047;-73
2021/10/23 03:17:26;;;;;;;0.10;0.10;;;;;;;;;;10472782;28;20049;-72
2021/10/23 03:22:30;;;;;;;0.20;0.20;;;;;;;;;;10502435;28;20037;-73
2021/10/23 03:27:33;;;;;;;0.10;0.10;;;;;;;;;;10471431;28;20041;-73
2021/10/23 03:32:36;;;;;;;0.10;0.10;;;;;;;;;;10477517;28;20099;-72
2021/10/23 03:37:40;;;;;;;0.13;0.13;;;;;;;;;;10498988;28;20063;-73
2021/10/23 03:42:43;;;;;;;0.20;0.20;;;;;;;;;;10485171;28;20110;-73
2021/10/23 03:47:49;;;;;;;0.10;0.10;;;;;;;;;;10476891;28;20056;-73
2021/10/23 03:52:54;;;;;;;0.17;0.17;;;;;;;;;;10476874;28;20059;-72
2021/10/23 03:57:57;;;;;;;0.20;0.20;;;;;;;;;;10477787;28;20055;-74
2021/10/23 04:03:00;;;;;;;0.10;0.10;;;;;;;;;;10477721;28;20050;-72
2021/10/23 04:08:04;;;;;;;0.20;0.20;;;;;;;;;;10477199;28;20118;-72
2021/10/23 04:13:06;;;;;;;0.20;0.20;;;;;;;;;;10478434;28;20063;-72
2021/10/23 04:18:09;;;;;;;0.10;0.10;;;;;;;;;;10478980;28;20673;-72
2021/10/23 04:23:13;;;;;;;0.10;0.10;;;;;;;;;;10476182;28;20054;-72
2021/10/23 04:28:16;;;;;;;0.20;0.20;;;;;;;;;;10476742;28;20049;-73
2021/10/23 04:33:19;;;;;;;0.20;0.20;;;;;;;;;;10476856;28;20101;-73
2021/10/23 04:38:24;;;;;;;0.20;0.20;;;;;;;;;;10475320;28;20037;-73
2021/10/23 04:43:27;;;;;;;0.20;0.20;;;;;;;;;;10476446;28;20044;-73
2021/10/23 04:48:31;;;;;;;0.20;0.20;;;;;;;;;;10477434;28;20396;-73
2021/10/23 04:53:36;;;;;;;0.20;0.20;;;;;;;;;;10473293;27;20501;-73
2021/10/23 04:58:39;;;;;;;0.20;0.20;;;;;;;;;;10475847;28;20164;-73
2021/10/23 05:03:41;;;;;;;0.20;0.20;;;;;;;;;;10473318;28;20055;-73
2021/10/23 05:08:46;;;;;;;0.10;0.10;;;;;;;;;;10474781;28;20495;-73
2021/10/23 05:13:48;;;;;;;0.10;0.10;;;;;;;;;;10474249;28;20047;-73
2021/10/23 05:18:51;;;;;;;0.20;0.20;;;;;;;;;;10476845;28;20097;-73
2021/10/23 05:23:59;;;;;;;0.17;0.17;;;;;;;;;;10476022;28;20041;-73
2021/10/23 05:29:02;;;;;;;0.22;0.22;;;;;;;;;;10474144;28;20841;-73
2021/10/23 05:34:05;;;;;;;0.10;0.10;;;;;;;;;;10470583;28;20139;-73
2021/10/23 05:39:10;;;;;;;0.20;0.20;;;;;;;;;;10468696;28;20062;-73
2021/10/23 05:44:13;;;;;;;0.13;0.13;;;;;;;;;;10470017;28;20763;-73
2021/10/23 05:49:15;;;;;;;0.20;0.20;;;;;;;;;;10469902;28;20063;-73
2021/10/23 05:54:20;;;;;;;0.10;0.10;;;;;;;;;;10466023;28;20058;-73
2021/10/23 05:59:23;;;;;;;0.20;0.20;;;;;;;;;;10468087;28;20032;-73
2021/10/23 06:04:26;;;;;;;0.20;0.20;;;;;;;;;;10471886;28;20044;-73
2021/10/23 06:09:31;;;;;;;0.20;0.20;;;;;;;;;;10464998;28;20044;-73
2021/10/23 06:14:33;;;;;;;0.15;0.15;;;;;;;;;;10468746;28;20050;-73
2021/10/23 06:19:37;;;;;;;0.10;0.10;;;;;;;;;;10469128;28;20154;-73
2021/10/23 06:24:41;;;;;;;0.20;0.20;;;;;;;;;;10462407;28;20491;-73
2021/10/23 06:29:44;;;;;;;0.10;0.10;;;;;;;;;;10468979;28;20048;-73
2021/10/23 06:34:47;;;;;;;0.20;0.20;;;;;;;;;;10469036;28;20324;-73
2021/10/23 06:39:51;;;;;;;0.15;0.10;;;;;;;;;;10467741;28;20036;-73
2021/10/23 06:44:54;;;;;;;0.10;0.10;;;;;;;;;;10468162;28;20044;-72
2021/10/23 06:49:58;;;;;;;0.20;0.20;;;;;;;;;;10465493;28;20049;-72
2021/10/23 06:55:02;;;;;;;0.20;0.20;;;;;;;;;;10468464;28;20063;-73
2021/10/23 07:00:06;;;;;;;0.10;0.10;;;;;;;;;;10465142;28;20428;-72
2021/10/23 07:05:10;;;;;;;0.20;0.20;;;;;;;;;;10465851;28;20152;-72
2021/10/23 07:10:14;;;;;;;0.20;0.20;;;;;;;;;;10475825;28;20059;-72
2021/10/23 07:15:23;;;;;;;0.20;0.20;;;;;;;;;;10476132;28;20048;-73
2021/10/23 07:20:25;;;;;;;0.20;0.20;;;;;;;;;;10475868;28;20351;-72
2021/10/23 07:25:30;;;;;;;0.20;0.20;;;;;;;;;;10473557;28;20045;-72
2021/10/23 07:30:33;;;;;;;0.20;0.20;;;;;;;;;;10477875;28;20043;-73
2021/10/23 07:35:37;;;;;;;0.20;0.20;;;;;;;;;;10478656;28;20056;-72
2021/10/23 07:40:41;;;;;;;0.10;0.10;;;;;;;;;;10477198;28;20036;-72
2021/10/23 07:45:47;;;;;;;0.20;0.20;;;;;;;;;;10474587;28;20941;-72
2021/10/23 07:50:51;;;;;;;0.10;0.10;;;;;;;;;;10473859;28;20044;-72
2021/10/23 07:55:57;;;;;;;0.20;0.20;;;;;;;;;;10474680;28;20047;-72
2021/10/23 08:01:03;;;;;;;0.10;0.10;;;;;;;;;;10500465;28;20470;-72
2021/10/23 08:06:09;;;;;;;0.20;0.20;;;;;;;;;;10474728;28;20052;-72
2021/10/23 08:11:15;;;;;;;0.20;0.20;;;;;;;;;;10475562;28;20066;-72
2021/10/23 08:16:18;;;;;;;0.10;0.10;;;;;;;;;;10466029;28;20036;-72
2021/10/23 08:21:21;;;;;;;0.20;0.20;;;;;;;;;;10471364;28;20040;-72
2021/10/23 08:26:25;;;;;;;0.10;0.10;;;;;;;;;;10471308;28;20038;-72
2021/10/23 08:31:28;;;;;;;0.10;0.10;;;;;;;;;;10471211;28;20040;-73
2021/10/23 08:36:31;;;;;;;0.10;0.10;;;;;;;;;;10472669;28;20502;-72
2021/10/23 08:41:35;;;;;;;0.10;0.10;;;;;;;;;;10474049;28;20608;-72
2021/10/23 08:46:44;;;;;;;0.17;0.17;;;;;;;;;;10470136;28;20040;-72
2021/10/23 08:51:47;;;;;;;0.10;0.10;;;;;;;;;;10468870;28;20052;-73
2021/10/23 08:56:51;;;;;;;0.10;0.10;;;;;;;;;;10469369;28;20126;-72
2021/10/23 09:01:55;;;;;;;0.10;0.10;;;;;;;;;;10473601;28;20052;-72
2021/10/23 09:07:06;;;;;;;0.10;0.10;;;;;;;;;;10472943;28;20048;-72
2021/10/23 09:12:16;;;;;;;0.10;0.10;;;;;;;;;;10473691;28;20045;-72
2021/10/23 09:17:19;;;;;;;0.10;0.10;;;;;;;;;;10467866;28;20049;-72
2021/10/23 09:22:29;;;;;;;0.10;0.10;;;;;;;;;;10476387;28;20044;-72
2021/10/23 09:27:34;;;;;;;0.10;0.10;;;;;;;;;;10475664;28;20066;-73
2021/10/23 09:32:41;;;;;;;0.10;0.10;;;;;;;;;;10473265;28;20400;-73
2021/10/23 09:37:45;;;;;;;0.20;0.20;;;;;;;;;;10474794;28;20045;-72
2021/10/23 09:43:03;;;;;;;0.10;0.10;;;;;;;;;;10473416;28;20110;-72
2021/10/23 09:48:06;;;;;;;0.10;0.10;;;;;;;;;;10473787;28;20048;-73
2021/10/23 09:53:10;;;;;;;0.15;0.10;;;;;;;;;;10476603;28;20056;-72
2021/10/23 09:58:15;;;;;;;0.10;0.10;;;;;;;;;;10505918;28;20045;-73
2021/10/23 10:03:21;;;;;;;0.10;0.10;;;;;;;;;;10481091;28;20048;-69
2021/10/23 10:08:24;;;;;;;0.10;0.10;;;;;;;;;;10492608;28;20036;-75
2021/10/23 10:13:29;;;;;;;0.10;0.10;;;;;;;;;;10490930;28;20045;-72
2021/10/23 10:18:33;;;;;;;0.10;0.10;;;;;;;;;;10474865;28;20044;-70
2021/10/23 10:23:39;;;;;;;0.10;0.10;;;;;;;;;;10476054;28;20161;-75
2021/10/23 10:28:57;;;;;;;0.10;0.10;;;;;;;;;;10473008;28;20047;-71
2021/10/23 10:34:08;;;;;;;0.10;0.10;;;;;;;;;;10471698;28;20064;-69
2021/10/23 10:39:25;;;;;;;0.10;0.10;;;;;;;;;;10473120;28;20036;-71
2021/10/23 10:44:29;;;;;;;0.10;0.10;;;;;;;;;;10469609;28;20487;-71
2021/10/23 10:49:56;;;;;;;0.10;0.10;;;;;;;;;;10474273;28;20036;-70
2021/10/23 10:55:12;;;;;;;0.10;0.10;;;;;;;;;;10471502;28;20426;-71
2021/10/23 11:00:17;;;;;;;0.10;0.10;;;;;;;;;;10470238;28;20051;-71
2021/10/23 11:05:25;;;;;;;0.10;0.10;;;;;;;;;;10468114;28;20388;-71
2021/10/23 11:10:42;;;;;;;0.10;0.10;;;;;;;;;;10472539;28;20065;-71
2021/10/23 11:15:46;;;;;;;0.10;0.10;;;;;;;;;;10471433;28;20056;-71
2021/10/23 11:20:50;;;;;;;0.10;0.10;;;;;;;;;;10470873;28;20333;-72
2021/10/23 11:25:53;;;;;;;0.10;0.10;;;;;;;;;;10465343;28;20119;-72
2021/10/23 11:30:57;;;;;;;0.10;0.10;;;;;;;;;;10470789;28;20051;-72
2021/10/23 11:36:12;;;;;;;0.08;0.08;;;;;;;;;;10471539;28;20052;-72
2021/10/23 11:41:22;;;;;;;0.00;0.00;;;;;;;;;;10470696;28;20124;-71
2021/10/23 11:46:24;;;;;;;0.10;0.10;;;;;;;;;;10471384;28;20437;-71
2021/10/23 11:51:28;;;;;;;0.10;0.10;;;;;;;;;;10470739;28;20063;-72
2021/10/23 11:56:31;;;;;;;0.00;0.00;;;;;;;;;;10505277;28;20067;-71
2021/10/23 12:01:36;;;;;;;0.00;0.00;;;;;;;;;;10479830;28;20050;-71
2021/10/23 12:06:42;;;;;;;0.08;0.08;;;;;;;;;;10476761;28;20060;-71
2021/10/23 12:11:45;;;;;;;0.10;0.10;;;;;;;;;;10476273;28;20040;-71
2021/10/23 12:16:48;;;;;;;0.00;0.00;;;;;;;;;;10476381;28;20402;-71
2021/10/23 12:21:53;;;;;;;0.00;0.00;;;;;;;;;;10471643;28;20128;-71
2021/10/23 12:27:04;;;;;;;0.00;0.00;;;;;;;;;;10478604;28;20041;-71
2021/10/23 12:32:08;;;;;;;0.10;0.10;;;;;;;;;;10475199;28;20048;-71
2021/10/23 12:37:12;;;;;;;0.10;0.10;;;;;;;;;;10480069;28;20390;-70
2021/10/23 12:42:14;;;;;;;0.10;0.10;;;;;;;;;;10472883;28;20742;-70
2021/10/23 12:47:17;;;;;;;0.10;0.10;;;;;;;;;;10473531;28;20045;-70
2021/10/23 12:52:21;;;;;;;0.10;0.10;;;;;;;;;;10480312;28;20048;-70
2021/10/23 12:57:24;;;;;;;0.00;0.00;;;;;;;;;;10477813;28;20048;-71
2021/10/23 13:02:27;;;;;;;0.05;0.05;;;;;;;;;;10478108;28;20072;-71
2021/10/23 13:07:31;;;;;;;0.10;0.10;;;;;;;;;;10473763;28;20064;-71
2021/10/23 13:12:35;;;;;;;0.10;0.10;;;;;;;;;;10477107;28;20040;-71
2021/10/23 13:17:38;;;;;;;0.03;0.03;;;;;;;;;;10475604;28;20075;-71
2021/10/23 13:22:43;;;;;;;0.00;0.00;;;;;;;;;;10477196;28;20037;-71
2021/10/23 13:27:45;;;;;;;0.10;0.10;;;;;;;;;;10473034;28;20052;-71
2021/10/23 13:32:48;;;;;;;0.10;0.10;;;;;;;;;;10476622;28;20040;-70
2021/10/23 13:37:53;;;;;;;0.00;0.00;;;;;;;;;;10472261;28;20062;-70
2021/10/23 13:42:56;;;;;;;0.10;0.10;;;;;;;;;;10475407;28;20124;-71
2021/10/23 13:47:59;;;;;;;0.10;0.10;;;;;;;;;;10470579;28;20965;-70
2021/10/23 13:53:03;;;;;;;0.10;0.10;;;;;;;;;;10473742;28;20053;-71
2021/10/23 13:58:07;;;;;;;0.00;0.00;;;;;;;;;;10475642;28;20493;-70
2021/10/23 14:03:10;;;;;;;0.10;0.10;;;;;;;;;;10476066;28;20781;-70
2021/10/23 14:08:14;;;;;;;0.10;0.10;;;;;;;;;;10474992;28;20048;-70
2021/10/23 14:13:17;;;;;;;0.10;0.10;;;;;;;;;;10471075;28;20036;-70
2021/10/23 14:18:20;;;;;;;0.00;0.00;;;;;;;;;;10470795;28;20040;-70
2021/10/23 14:23:25;;;;;;;0.10;0.10;;;;;;;;;;10471348;28;20040;-70
2021/10/23 14:28:40;;;;;;;0.10;0.10;;;;;;;;;;10471099;28;20045;-70
2021/10/23 14:33:43;;;;;;;0.10;0.10;;;;;;;;;;10470976;28;20044;-70
2021/10/23 14:38:47;;;;;;;0.10;0.10;;;;;;;;;;10467013;28;20059;-70
2021/10/23 14:43:51;;;;;;;0.00;0.00;;;;;;;;;;10469269;28;20046;-70
2021/10/23 14:48:55;;;;;;;0.10;0.10;;;;;;;;;;10464674;28;20048;-70
2021/10/23 14:53:59;;;;;;;0.00;0.00;;;;;;;;;;10477150;28;20052;-70
2021/10/23 14:59:02;;;;;;;0.10;0.10;;;;;;;;;;10474116;28;20044;-70
2021/10/23 15:04:06;;;;;;;0.10;0.10;;;;;;;;;;10473705;28;20140;-71
2021/10/23 15:09:10;;;;;;;0.10;0.10;;;;;;;;;;10471124;28;20041;-72
2021/10/23 15:14:13;;;;;;;0.10;0.10;;;;;;;;;;10473425;28;20048;-72
2021/10/23 15:19:17;;;;;;;0.10;0.10;;;;;;;;;;10470601;28;20124;-71
2021/10/23 15:24:22;;;;;;;0.20;0.20;;;;;;;;;;10469916;28;20053;-72
2021/10/23 15:29:25;;;;;;;0.10;0.10;;;;;;;;;;10475690;28;20058;-72
2021/10/23 15:34:28;;;;;;;0.10;0.10;;;;;;;;;;10477949;28;20122;-69
2021/10/23 15:39:39;;;;;;;0.03;0.03;;;;;;;;;;10482911;28;20449;-67
2021/10/23 15:44:42;;;;;;;0.17;0.17;;;;;;;;;;10483496;28;20055;-68
2021/10/23 16:29:50;;;;;;;0.05;0.05;;;;;;;;;;10480918;27;20099;-69
2021/10/23 16:34:53;;;;;;;0.10;0.10;;;;;;;;;;10549553;28;20039;-69
2021/10/23 16:39:55;;;;;;;0.10;0.10;;;;;;;;;;10533441;28;20745;-69
2021/10/23 16:45:00;;;;;;;0.10;0.10;;;;;;;;;;10557230;28;20478;-69
2021/10/23 16:50:03;;;;;;;0.10;0.10;;;;;;;;;;10554169;28;20042;-69
2021/10/23 16:55:06;;;;;;;0.10;0.10;;;;;;;;;;10556025;28;20044;-70
2021/10/23 17:00:11;;;;;;;0.05;0.05;;;;;;;;;;10556366;28;20097;-70
2021/10/23 17:05:14;;;;;;;0.13;0.10;;;;;;;;;;10562300;28;20043;-70
2021/10/23 17:10:16;;;;;;;0.10;0.10;;;;;;;;;;10543181;28;20051;-70
2021/10/23 17:15:21;;;;;;;0.10;0.10;;;;;;;;;;10545025;28;20067;-68
2021/10/23 17:20:24;;;;;;;0.20;0.10;;;;;;;;;;10525453;28;20058;-70
2021/10/23 17:25:27;;;;;;;0.10;0.10;;;;;;;;;;10542547;28;20051;-68
2021/10/23 17:30:31;;;;;;;0.10;0.10;;;;;;;;;;10550111;28;20427;-68
2021/10/23 17:35:33;;;;;;;0.10;0.10;;;;;;;;;;10550373;28;20753;-70
2021/10/23 17:40:36;;;;;;;0.10;0.10;;;;;;;;;;10527538;28;20047;-69
2021/10/23 17:45:41;;;;;;;0.10;0.10;;;;;;;;;;10538203;28;20040;-67
2021/10/23 17:50:44;;;;;;;0.30;0.15;;;;;;;;;;10546197;28;20070;-68
2021/10/23 17:55:46;;;;;;;0.10;0.10;;;;;;;;;;10542126;28;20046;-68
2021/10/23 18:00:51;;;;;;;0.10;0.10;;;;;;;;;;10548650;28;20070;-67
2021/10/23 18:05:54;;;;;;;0.10;0.10;;;;;;;;;;10538604;28;20048;-72
2021/10/23 18:10:57;;;;;;;0.10;0.10;;;;;;;;;;10526990;28;20052;-70
2021/10/23 18:16:06;;;;;;;0.10;0.10;;;;;;;;;;10533607;28;20040;-70
2021/10/23 18:21:14;;;;;;;0.10;0.10;;;;;;;;;;10528800;28;20088;-70
2021/10/23 18:26:17;;;;;;;0.10;0.10;;;;;;;;;;10536092;28;20082;-70
2021/10/23 18:31:21;;;;;;;0.10;0.10;;;;;;;;;;10548079;28;20044;-70
2021/10/23 18:36:24;;;;;;;0.10;0.10;;;;;;;;;;10518359;28;20055;-70
2021/10/23 18:41:28;;;;;;;0.10;0.10;;;;;;;;;;10548871;28;20397;-70
2021/10/23 18:46:33;;;;;;;0.10;0.10;;;;;;;;;;10534522;28;20500;-70
2021/10/23 18:51:37;;;;;;;0.10;0.10;;;;;;;;;;10523941;28;20812;-71
2021/10/23 18:56:40;;;;;;;0.10;0.10;;;;;;;;;;10534473;28;20047;-70
2021/10/23 19:01:44;;;;;;;0.10;0.10;;;;;;;;;;10543978;28;20491;-70
2021/10/23 19:06:48;;;;;;;0.20;0.20;;;;;;;;;;10539635;28;20108;-70
2021/10/23 19:11:50;;;;;;;0.10;0.10;;;;;;;;;;10533872;28;20136;-70
2021/10/23 19:16:55;;;;;;;0.10;0.10;;;;;;;;;;10543530;28;20040;-70
2021/10/23 19:22:00;;;;;;;0.10;0.10;;;;;;;;;;10542815;28;20061;-70
2021/10/23 19:27:04;;;;;;;0.10;0.10;;;;;;;;;;10538033;28;20063;-69
2021/10/23 19:32:09;;;;;;;0.10;0.10;;;;;;;;;;10543477;28;20044;-70
2021/10/23 19:37:12;;;;;;;0.10;0.10;;;;;;;;;;10529906;28;20056;-70
2021/10/23 19:42:15;;;;;;;0.10;0.10;;;;;;;;;;10540493;28;20044;-70
2021/10/23 19:47:19;;;;;;;0.10;0.10;;;;;;;;;;10541446;28;20901;-70
2021/10/23 19:52:23;;;;;;;0.10;0.10;;;;;;;;;;10522083;28;20121;-70
2021/10/23 19:57:26;;;;;;;0.13;0.13;;;;;;;;;;10518609;28;20815;-70
2021/10/23 20:02:30;;;;;;;0.10;0.10;;;;;;;;;;10544858;28;20042;-70
2021/10/23 20:07:33;;;;;;;0.10;0.10;;;;;;;;;;10547984;28;20517;-70
2021/10/23 20:12:36;;;;;;;0.10;0.10;;;;;;;;;;10527255;28;20394;-70
2021/10/23 20:17:41;;;;;;;0.10;0.10;;;;;;;;;;10549165;28;20061;-70
2021/10/23 20:22:44;;;;;;;0.10;0.10;;;;;;;;;;10561168;28;20421;-70
2021/10/23 20:27:47;;;;;;;0.10;0.10;;;;;;;;;;10549726;28;20115;-70
2021/10/23 20:32:51;;;;;;;0.10;0.10;;;;;;;;;;10537940;28;20090;-70
2021/10/23 20:37:58;;;;;;;0.10;0.10;;;;;;;;;;10547402;28;20035;-70
2021/10/23 20:43:01;;;;;;;0.10;0.10;;;;;;;;;;10563323;28;20066;-70
2021/10/23 20:48:05;;;;;;;0.10;0.10;;;;;;;;;;10542825;28;20414;-70
2021/10/23 20:53:08;;;;;;;0.20;0.20;;;;;;;;;;10542662;28;20040;-70
2021/10/23 20:58:11;;;;;;;0.10;0.10;;;;;;;;;;10558814;28;20043;-70
2021/10/23 21:03:15;;;;;;;0.20;0.20;;;;;;;;;;10558688;28;20063;-69
2021/10/23 21:08:19;;;;;;;0.10;0.10;;;;;;;;;;10549819;28;20057;-70
2021/10/23 21:13:22;;;;;;;0.20;0.20;;;;;;;;;;10559539;28;20038;-69
2021/10/23 21:18:26;;;;;;;0.10;0.10;;;;;;;;;;10556038;28;20422;-70
2021/10/23 21:23:30;;;;;;;0.10;0.10;;;;;;;;;;10551678;28;20504;-69
2021/10/23 21:28:33;;;;;;;0.20;0.20;;;;;;;;;;10545735;28;20119;-69
2021/10/23 21:33:38;;;;;;;0.10;0.10;;;;;;;;;;10515759;28;20075;-69
2021/10/23 21:38:41;;;;;;;0.10;0.10;;;;;;;;;;10546362;28;20073;-69
2021/10/23 21:43:44;;;;;;;0.15;0.15;;;;;;;;;;10523305;28;20421;-69
2021/10/23 21:55:24;;;;;;;0.20;0.20;;;;;;;;;;10548356;28;20031;-69
2021/10/23 22:00:45;;;;;;;0.20;0.20;;;;;;;;;;10550779;28;20059;-69
2021/10/23 22:05:48;;;;;;;0.20;0.20;;;;;;;;;;10558644;28;20447;-69
2021/10/23 22:10:52;;;;;;;0.13;0.13;;;;;;;;;;10520767;28;20473;-69
2021/10/23 22:15:56;;;;;;;0.10;0.10;;;;;;;;;;10546872;28;20046;-69
2021/10/23 22:21:01;;;;;;;0.10;0.10;;;;;;;;;;10558362;28;20043;-70
2021/10/23 22:26:05;;;;;;;0.10;0.10;;;;;;;;;;10540419;28;20081;-70
2021/10/23 22:31:09;;;;;;;0.20;0.20;;;;;;;;;;10558028;28;20050;-70
2021/10/23 22:36:12;;;;;;;0.20;0.20;;;;;;;;;;10556526;28;20489;-70
2021/10/23 22:41:16;;;;;;;0.17;0.17;;;;;;;;;;10539046;28;20059;-70
2021/10/23 22:46:18;;;;;;;0.10;0.10;;;;;;;;;;10534900;28;20048;-70
2021/10/23 22:51:21;;;;;;;0.20;0.20;;;;;;;;;;10554120;28;20398;-70
2021/10/23 22:56:26;;;;;;;0.20;0.20;;;;;;;;;;10535522;28;20046;-70
2021/10/23 23:01:28;;;;;;;0.20;0.20;;;;;;;;;;10541141;28;20063;-70
2021/10/23 23:06:31;;;;;;;0.10;0.10;;;;;;;;;;10542218;28;20054;-70
2021/10/23 23:11:36;;;;;;;0.20;0.10;;;;;;;;;;10551764;28;20050;-70
2021/10/23 23:16:39;;;;;;;0.20;0.20;;;;;;;;;;10524632;28;20113;-70
2021/10/23 23:21:42;;;;;;;0.10;0.10;;;;;;;;;;10533505;28;20071;-70
2021/10/23 23:26:46;;;;;;;0.20;0.20;;;;;;;;;;10526394;28;20133;-70
2021/10/23 23:31:49;;;;;;;0.20;0.20;;;;;;;;;;10556395;28;20062;-70
2021/10/23 23:36:51;;;;;;;0.10;0.10;;;;;;;;;;10529382;28;20160;-70
2021/10/23 23:41:56;;;;;;;0.15;0.15;;;;;;;;;;10545590;28;20064;-70
2021/10/23 23:46:58;;;;;;;0.10;0.10;;;;;;;;;;10549314;28;20052;-70
2021/10/23 23:52:01;;;;;;;0.20;0.20;;;;;;;;;;10538792;28;20040;-70
2021/10/23 23:57:05;;;;;;;0.20;0.17;;;;;;;;;;10546020;28;20410;-70
